createdAt,value
2018-06-11T00:01:03.255Z,45.71
2018-06-11T00:03:33.729Z,45.46
2018-06-11T00:06:04.802Z,45.51
2018-06-11T00:08:35.611Z,45.14
2018-06-11T00:11:06.822Z,45.37
2018-06-11T00:13:37.766Z,45.86
2018-06-11T00:16:09.949Z,45.51
2018-06-11T00:18:43.551Z,45.68
2018-06-11T00:21:14.637Z,46.17
2018-06-11T00:23:48.195Z,46.33
2018-06-11T00:26:19.923Z,45.87
2018-06-11T00:28:51.009Z,46.00
2018-06-11T00:31:22.225Z,45.88
2018-06-11T00:33:54.261Z,45.63
2018-06-11T00:36:24.813Z,45.80
2018-06-11T00:38:55.275Z,45.67
2018-06-11T00:41:25.719Z,45.67
2018-06-11T00:43:57.812Z,46.49
2018-06-11T00:46:28.521Z,46.00
2018-06-11T00:48:59.044Z,45.21
2018-06-11T00:51:32.411Z,45.88
2018-06-11T00:54:05.869Z,45.89
2018-06-11T00:56:37.432Z,45.52
2018-06-11T00:59:07.980Z,45.83
2018-06-11T01:01:42.331Z,45.97
2018-06-11T01:04:12.829Z,46.14
2018-06-11T01:06:44.190Z,46.19
2018-06-11T01:09:15.905Z,45.66
2018-06-11T01:11:46.921Z,46.38
2018-06-11T01:14:17.511Z,46.28
2018-06-11T01:16:48.053Z,45.84
2018-06-11T01:19:19.286Z,46.04
2018-06-11T01:21:50.526Z,46.29
2018-06-11T01:24:21.334Z,46.26
2018-06-11T01:26:52.662Z,47.40
2018-06-11T01:29:23.317Z,47.19
2018-06-11T01:31:54.781Z,46.68
2018-06-11T01:34:26.185Z,46.83
2018-06-11T01:36:57.627Z,46.82
2018-06-11T01:39:29.208Z,47.37
2018-06-11T01:42:00.478Z,46.80
2018-06-11T01:44:31.052Z,47.49
2018-06-11T01:47:02.406Z,47.27
2018-06-11T01:49:33.852Z,47.37
2018-06-11T01:52:05.099Z,47.69
2018-06-11T01:54:35.713Z,47.12
2018-06-11T01:57:06.277Z,48.08
2018-06-11T01:59:37.789Z,47.06
2018-06-11T02:02:09.074Z,48.01
2018-06-11T02:04:39.739Z,48.10
2018-06-11T02:07:10.621Z,47.91
2018-06-11T02:09:41.527Z,47.53
2018-06-11T02:12:12.422Z,48.04
2018-06-11T02:14:43.315Z,47.69
2018-06-11T02:17:14.275Z,48.38
2018-06-11T02:19:47.534Z,48.21
2018-06-11T02:22:19.567Z,48.80
2018-06-11T02:24:50.742Z,48.74
2018-06-11T02:27:21.639Z,48.08
2018-06-11T02:29:55.700Z,48.02
2018-06-11T02:32:26.289Z,48.94
2018-06-11T02:34:57.030Z,49.06
2018-06-11T02:37:27.640Z,48.15
2018-06-11T02:39:58.093Z,48.99
2018-06-11T02:42:29.426Z,48.57
2018-06-11T02:45:00.863Z,48.51
2018-06-11T02:47:33.742Z,48.67
2018-06-11T02:50:05.043Z,48.38
2018-06-11T02:52:35.581Z,48.78
2018-06-11T02:55:06.347Z,48.56
2018-06-11T02:57:36.772Z,49.39
2018-06-11T03:00:09.107Z,48.31
2018-06-11T03:02:40.534Z,48.61
2018-06-11T03:05:11.073Z,49.15
2018-06-11T03:07:41.582Z,49.50
2018-06-11T03:10:12.350Z,49.10
2018-06-11T03:12:42.815Z,49.51
2018-06-11T03:15:14.849Z,49.17
2018-06-11T03:17:46.554Z,49.70
2018-06-11T03:20:17.249Z,48.91
2018-06-11T03:22:48.578Z,49.47
2018-06-11T03:25:19.119Z,49.50
2018-06-11T03:27:50.271Z,49.63
2018-06-11T03:30:21.134Z,49.20
2018-06-11T03:32:52.247Z,49.30
2018-06-11T03:35:22.771Z,49.93
2018-06-11T03:37:53.709Z,49.93
2018-06-11T03:40:24.740Z,49.83
2018-06-11T03:42:55.220Z,49.42
2018-06-11T03:45:25.766Z,49.47
2018-06-11T03:47:56.844Z,50.06
2018-06-11T03:50:28.199Z,49.44
2018-06-11T03:53:00.841Z,49.40
2018-06-11T03:55:31.307Z,49.69
2018-06-11T03:58:05.670Z,49.81
2018-06-11T04:00:36.783Z,49.18
2018-06-11T04:03:07.313Z,49.57
2018-06-11T04:05:37.833Z,48.83
2018-06-11T04:08:08.401Z,48.62
2018-06-11T04:10:38.921Z,48.87
2018-06-11T04:13:09.930Z,48.28
2018-06-11T04:15:41.073Z,48.91
2018-06-11T04:18:14.376Z,47.66
2018-06-11T04:20:44.889Z,47.70
2018-06-11T04:23:15.358Z,47.16
2018-06-11T04:25:45.550Z,47.95
2018-06-11T04:28:16.673Z,48.18
2018-06-11T04:30:48.746Z,48.08
2018-06-11T04:33:20.252Z,48.08
2018-06-11T04:35:51.096Z,47.62
2018-06-11T04:38:21.653Z,47.72
2018-06-11T04:40:52.195Z,46.27
2018-06-11T04:43:23.952Z,44.93
2018-06-11T04:45:54.549Z,44.41
2018-06-11T04:48:25.204Z,43.10
2018-06-11T04:50:55.699Z,42.42
2018-06-11T04:53:26.402Z,42.54
2018-06-11T04:55:57.650Z,41.50
2018-06-11T04:58:29.106Z,41.77
2018-06-11T05:00:59.677Z,41.65
2018-06-11T05:03:30.118Z,40.34
2018-06-11T05:06:00.634Z,39.88
2018-06-11T05:08:31.386Z,40.22
2018-06-11T05:11:01.893Z,39.14
2018-06-11T05:13:32.520Z,39.36
2018-06-11T05:16:04.517Z,38.57
2018-06-11T05:18:35.000Z,38.68
2018-06-11T05:21:06.374Z,37.93
2018-06-11T05:23:38.769Z,37.18
2018-06-11T05:26:09.256Z,37.26
2018-06-11T05:28:43.482Z,36.70
2018-06-11T05:31:17.326Z,36.83
2018-06-11T05:33:47.864Z,37.14
2018-06-11T05:36:18.403Z,36.57
2018-06-11T05:38:51.813Z,36.46
2018-06-11T05:41:22.367Z,36.25
2018-06-11T05:43:53.196Z,35.29
2018-06-11T05:46:23.675Z,35.33
2018-06-11T05:48:54.448Z,35.58
2018-06-11T05:51:25.944Z,36.57
2018-06-11T05:53:58.288Z,37.73
2018-06-11T05:56:28.854Z,38.61
2018-06-11T05:58:59.628Z,39.62
2018-06-11T06:01:30.289Z,39.39
2018-06-11T06:04:01.985Z,40.00
2018-06-11T06:06:32.487Z,40.62
2018-06-11T06:09:03.174Z,40.00
2018-06-11T06:11:33.673Z,38.73
2018-06-11T06:14:04.503Z,37.21
2018-06-11T06:16:36.230Z,36.49
2018-06-11T06:19:07.925Z,35.78
2018-06-11T06:21:38.168Z,34.57
2018-06-11T06:24:09.783Z,33.91
2018-06-11T06:26:42.296Z,33.00
2018-06-11T06:29:15.967Z,33.22
2018-06-11T06:31:46.427Z,33.06
2018-06-11T06:34:17.016Z,33.12
2018-06-11T06:36:47.690Z,33.22
2018-06-11T06:39:18.218Z,33.45
2018-06-11T06:41:53.961Z,32.68
2018-06-11T06:44:25.322Z,32.29
2018-06-11T06:46:59.121Z,32.04
2018-06-11T06:49:29.638Z,32.29
2018-06-11T06:52:03.761Z,33.32
2018-06-11T06:54:37.432Z,33.22
2018-06-11T06:57:10.208Z,32.94
2018-06-11T06:59:40.780Z,33.86
2018-06-11T07:02:12.425Z,33.05
2018-06-11T07:04:44.551Z,33.27
2018-06-11T07:07:15.733Z,32.75
2018-06-11T07:09:46.471Z,33.14
2018-06-11T07:12:17.498Z,33.21
2018-06-11T07:14:48.027Z,32.16
2018-06-11T07:17:19.638Z,32.60
2018-06-11T07:19:50.747Z,31.84
2018-06-11T07:22:21.483Z,30.60
2018-06-11T07:24:53.057Z,30.97
2018-06-11T07:27:26.963Z,31.82
2018-06-11T07:29:57.573Z,33.04
2018-06-11T07:32:28.077Z,34.17
2018-06-11T07:34:58.652Z,33.29
2018-06-11T07:37:32.222Z,34.09
2018-06-11T07:40:24.529Z,33.98
2018-06-11T07:50:27.680Z,33.67
2018-06-11T07:52:58.244Z,33.28
2018-06-11T07:55:35.355Z,33.68
2018-06-11T07:58:10.067Z,34.20
2018-06-11T08:00:41.849Z,33.88
2018-06-11T08:03:12.428Z,33.55
2018-06-11T08:05:46.789Z,33.04
2018-06-11T08:08:18.212Z,32.42
2018-06-11T08:10:49.278Z,32.73
2018-06-11T08:13:25.743Z,33.13
2018-06-11T08:15:57.334Z,33.83
2018-06-11T08:18:31.869Z,33.59
2018-06-11T08:21:03.645Z,32.54
2018-06-11T08:23:37.240Z,32.94
2018-06-11T08:26:09.623Z,32.08
2018-06-11T08:28:44.197Z,32.12
2018-06-11T08:31:14.771Z,32.25
2018-06-11T08:33:46.731Z,32.44
2018-06-11T08:36:17.832Z,32.74
2018-06-11T08:38:48.412Z,32.21
2018-06-11T08:41:21.142Z,32.98
2018-06-11T08:43:52.183Z,33.28
2018-06-11T08:46:24.435Z,33.90
2018-06-11T08:48:55.580Z,33.75
2018-06-11T08:51:29.562Z,33.65
2018-06-11T08:54:03.375Z,34.57
2018-06-11T08:56:37.792Z,34.31
2018-06-11T08:59:12.504Z,34.21
2018-06-11T09:01:45.979Z,35.28
2018-06-11T09:04:25.932Z,34.66
2018-06-11T09:06:59.921Z,34.20
2018-06-11T09:09:31.160Z,35.20
2018-06-11T09:12:03.501Z,34.36
2018-06-11T09:14:38.629Z,34.20
2018-06-11T09:17:11.415Z,33.94
2018-06-11T09:19:43.887Z,34.30
2018-06-11T09:22:14.974Z,35.74
2018-06-11T09:24:46.879Z,35.68
2018-06-11T09:27:17.511Z,34.99
2018-06-11T09:29:53.081Z,35.28
2018-06-11T09:32:25.559Z,35.03
2018-06-11T09:35:00.675Z,34.98
2018-06-11T09:37:31.218Z,34.90
2018-06-11T09:40:03.326Z,35.80
2018-06-11T09:42:36.071Z,35.37
2018-06-11T09:45:06.557Z,33.88
2018-06-11T09:47:40.263Z,32.73
2018-06-11T09:50:16.560Z,32.59
2018-06-11T09:52:48.183Z,31.97
2018-06-11T09:55:20.841Z,32.73
2018-06-11T09:57:55.791Z,32.21
2018-06-11T10:00:31.498Z,32.56
2018-06-11T10:03:03.611Z,33.90
2018-06-11T10:05:35.422Z,33.62
2018-06-11T10:08:06.426Z,34.48
2018-06-11T10:10:38.865Z,34.35
2018-06-11T10:13:10.711Z,34.87
2018-06-11T10:15:42.189Z,34.41
2018-06-11T10:18:14.390Z,34.81
2018-06-11T10:20:46.647Z,35.23
2018-06-11T10:23:19.723Z,34.01
2018-06-11T10:25:50.298Z,34.10
2018-06-11T10:28:21.358Z,34.55
2018-06-11T10:30:52.438Z,34.24
2018-06-11T10:33:25.261Z,33.65
2018-06-11T10:35:58.670Z,34.09
2018-06-11T10:38:33.518Z,33.54
2018-06-11T10:41:06.277Z,33.40
2018-06-11T10:43:40.818Z,33.16
2018-06-11T10:46:13.340Z,33.86
2018-06-11T10:48:45.872Z,33.10
2018-06-11T10:51:16.384Z,34.09
2018-06-11T10:53:48.437Z,33.18
2018-06-11T10:56:19.343Z,32.82
2018-06-11T10:58:53.041Z,33.81
2018-06-11T11:01:23.578Z,32.79
2018-06-11T11:03:55.164Z,33.04
2018-06-11T11:06:25.694Z,32.87
2018-06-11T11:09:00.078Z,32.45
2018-06-11T11:11:31.536Z,32.92
2018-06-11T11:14:07.439Z,32.80
2018-06-11T11:16:38.776Z,32.54
2018-06-11T11:19:11.536Z,31.81
2018-06-11T11:21:42.101Z,32.40
2018-06-11T11:24:15.070Z,31.75
2018-06-11T11:26:46.294Z,31.78
2018-06-11T11:29:16.865Z,32.32
2018-06-11T11:31:50.036Z,32.05
2018-06-11T11:34:21.882Z,32.10
2018-06-11T11:36:52.753Z,31.76
2018-06-11T11:39:24.920Z,32.10
2018-06-11T11:41:56.430Z,31.55
2018-06-11T11:44:26.982Z,30.98
2018-06-11T11:46:58.457Z,31.65
2018-06-11T11:49:30.586Z,32.05
2018-06-11T11:52:02.078Z,31.10
2018-06-11T11:54:33.289Z,31.96
2018-06-11T11:57:06.451Z,31.21
2018-06-11T12:02:32.845Z,32.74
2018-06-11T12:05:05.468Z,32.46
2018-06-11T12:07:38.828Z,32.34
2018-06-11T12:10:12.685Z,32.81
2018-06-11T12:12:45.203Z,32.94
2018-06-11T12:15:17.998Z,32.21
2018-06-11T12:17:51.477Z,32.87
2018-06-11T12:20:22.471Z,33.55
2018-06-11T12:22:55.447Z,34.09
2018-06-11T12:25:37.403Z,34.23
2018-06-11T12:28:16.567Z,34.91
2018-06-11T12:30:50.109Z,34.38
2018-06-11T12:33:21.291Z,34.02
2018-06-11T12:35:52.693Z,33.60
2018-06-11T12:38:24.352Z,34.24
2018-06-11T12:40:56.741Z,34.50
2018-06-11T12:43:30.121Z,35.18
2018-06-11T12:46:02.341Z,34.39
2018-06-11T12:48:35.530Z,35.27
2018-06-11T12:51:06.474Z,35.04
2018-06-11T12:53:44.452Z,34.70
2018-06-11T12:56:16.504Z,35.46
2018-06-11T12:58:50.110Z,35.49
2018-06-11T13:01:22.770Z,35.67
2018-06-11T13:03:57.129Z,35.91
2018-06-11T13:06:29.213Z,36.29
2018-06-11T13:09:00.508Z,35.60
2018-06-11T13:11:32.463Z,36.39
2018-06-11T13:14:06.339Z,36.43
2018-06-11T13:16:43.335Z,36.90
2018-06-11T13:19:18.106Z,36.81
2018-06-11T13:21:50.722Z,37.62
2018-06-11T13:24:23.444Z,37.40
2018-06-11T13:26:55.477Z,37.66
2018-06-11T13:29:32.186Z,38.04
2018-06-11T13:32:08.181Z,38.61
2018-06-11T13:34:41.725Z,39.24
2018-06-11T13:37:13.435Z,39.74
2018-06-11T13:39:46.645Z,39.89
2018-06-11T13:42:18.316Z,40.23
2018-06-11T13:44:54.351Z,39.52
2018-06-11T13:47:40.583Z,40.46
2018-06-11T13:50:14.001Z,39.84
2018-06-11T13:52:56.286Z,40.33
2018-06-11T13:55:28.486Z,40.30
2018-06-11T13:58:01.413Z,40.54
2018-06-11T14:00:33.742Z,40.79
2018-06-11T14:03:05.341Z,40.96
2018-06-11T14:05:37.790Z,41.78
2018-06-11T14:08:10.086Z,41.65
2018-06-11T14:10:40.641Z,41.88
2018-06-11T14:13:12.438Z,41.48
2018-06-11T14:15:42.990Z,42.05
2018-06-11T14:18:14.674Z,42.00
2018-06-11T14:20:47.178Z,42.41
2018-06-11T14:23:19.017Z,42.60
2018-06-11T14:25:50.798Z,42.25
2018-06-11T14:28:22.677Z,42.70
2018-06-11T14:30:55.150Z,42.20
2018-06-11T14:33:26.461Z,42.75
2018-06-11T14:35:58.861Z,42.30
2018-06-11T14:38:29.242Z,43.07
2018-06-11T14:41:05.534Z,43.59
2018-06-11T14:43:36.793Z,43.61
2018-06-11T14:46:08.353Z,44.58
2018-06-11T14:52:04.847Z,45.18
2018-06-11T14:55:23.856Z,46.13
2018-06-11T14:58:21.590Z,46.64
2018-06-11T15:04:22.052Z,46.63
2018-06-11T15:14:42.297Z,49.85
2018-06-11T15:22:59.964Z,50.17
2018-06-11T15:31:00.075Z,52.59
2018-06-11T15:33:39.517Z,54.31
2018-06-11T15:37:07.529Z,53.83
2018-06-11T15:43:54.093Z,54.86
2018-06-11T16:07:17.325Z,57.13
2018-06-11T16:09:54.058Z,57.26
2018-06-11T16:12:31.533Z,56.73
2018-06-11T16:33:26.916Z,58.46
2018-06-11T16:39:39.670Z,57.69
2018-06-11T17:02:42.804Z,58.12
2018-06-11T17:05:30.427Z,57.75
2018-06-11T17:08:10.009Z,58.06
2018-06-11T17:10:51.078Z,57.84
2018-06-11T17:13:52.419Z,58.03
2018-06-11T17:32:38.454Z,57.67
2018-06-11T17:45:17.199Z,58.32
2018-06-11T18:00:25.265Z,58.24
2018-06-11T18:03:04.642Z,57.17
2018-06-11T18:05:43.646Z,58.03
2018-06-11T18:08:30.489Z,57.40
2018-06-11T18:11:10.299Z,57.31
2018-06-11T18:13:49.718Z,58.05
2018-06-11T18:31:03.324Z,57.70
2018-06-11T18:33:48.398Z,56.88
2018-06-11T18:36:32.833Z,56.67
2018-06-11T18:39:18.013Z,56.58
2018-06-11T18:42:10.490Z,57.25
2018-06-11T18:44:53.030Z,57.00
2018-06-11T18:47:36.253Z,56.98
2018-06-11T18:54:27.567Z,56.82
2018-06-11T19:07:12.317Z,56.49
2018-06-11T19:09:51.432Z,56.73
2018-06-11T19:12:56.446Z,56.60
2018-06-11T19:41:36.184Z,56.59
2018-06-11T19:44:11.695Z,55.68
2018-06-11T19:46:46.628Z,55.86
2018-06-11T19:49:22.198Z,55.97
2018-06-11T19:51:55.926Z,55.24
2018-06-11T19:54:29.315Z,55.99
2018-06-11T19:57:03.854Z,55.20
2018-06-11T19:59:35.797Z,55.82
2018-06-11T20:02:06.589Z,55.78
2018-06-11T20:04:39.654Z,55.22
2018-06-11T20:07:13.202Z,54.91
2018-06-11T20:09:44.831Z,55.24
2018-06-11T20:12:20.308Z,55.68
2018-06-11T20:14:55.341Z,55.70
2018-06-11T20:17:29.618Z,54.76
2018-06-11T20:20:03.465Z,54.74
2018-06-11T20:22:34.633Z,54.63
2018-06-11T20:25:11.465Z,54.13
2018-06-11T20:27:45.087Z,53.74
2018-06-11T20:30:17.587Z,53.94
2018-06-11T20:32:55.113Z,54.37
2018-06-11T20:35:28.039Z,53.68
2018-06-11T20:38:02.518Z,53.76
2018-06-11T20:40:34.407Z,53.75
2018-06-11T20:43:09.469Z,53.01
2018-06-11T20:45:42.582Z,52.95
2018-06-11T20:48:18.257Z,52.08
2018-06-11T20:50:54.424Z,52.84
2018-06-11T20:53:28.642Z,52.44
2018-06-11T20:56:06.862Z,52.37
2018-06-11T20:58:43.385Z,53.14
2018-06-11T21:01:16.578Z,52.83
2018-06-11T21:03:51.140Z,53.46
2018-06-11T21:06:46.578Z,53.61
2018-06-11T21:09:19.995Z,53.86
2018-06-11T21:11:56.229Z,54.04
2018-06-11T21:14:31.371Z,53.90
2018-06-11T21:17:06.642Z,54.40
2018-06-11T21:19:44.458Z,54.53
2018-06-11T21:22:19.006Z,54.60
2018-06-11T21:24:51.450Z,54.08
2018-06-11T21:27:26.224Z,53.95
2018-06-11T21:32:54.170Z,54.62
2018-06-11T21:35:31.818Z,54.25
2018-06-11T21:38:05.453Z,55.39
2018-06-11T21:40:40.589Z,55.13
2018-06-11T21:43:18.223Z,54.29
2018-06-11T21:45:52.197Z,54.94
2018-06-11T21:48:26.774Z,54.45
2018-06-11T21:50:58.062Z,54.24
2018-06-11T21:53:31.575Z,53.89
2018-06-11T21:56:04.130Z,53.60
2018-06-11T21:58:49.421Z,54.01
2018-06-11T22:01:25.227Z,54.03
2018-06-11T22:03:58.677Z,54.40
2018-06-11T22:06:31.597Z,54.70
2018-06-11T22:09:04.078Z,54.03
2018-06-11T22:11:38.466Z,54.15
2018-06-11T22:14:10.886Z,54.14
2018-06-11T22:16:41.659Z,53.92
2018-06-11T22:19:15.713Z,53.51
2018-06-11T22:21:50.018Z,54.51
2018-06-11T22:24:24.668Z,53.47
2018-06-11T22:26:58.762Z,53.14
2018-06-11T22:29:34.208Z,53.77
2018-06-11T22:32:21.293Z,53.22
2018-06-11T22:34:54.626Z,53.28
2018-06-11T22:37:27.202Z,53.27
2018-06-11T22:40:03.276Z,52.28
2018-06-11T22:42:34.216Z,52.39
2018-06-11T22:45:07.662Z,52.40
2018-06-11T22:47:40.046Z,51.71
2018-06-11T22:50:13.546Z,51.23
2018-06-11T22:52:47.426Z,51.59
2018-06-11T22:55:19.509Z,52.03
2018-06-11T22:57:52.849Z,51.92
2018-06-11T23:00:35.042Z,51.29
2018-06-11T23:03:07.273Z,50.63
2018-06-11T23:05:40.511Z,50.54
2018-06-11T23:08:12.874Z,50.45
2018-06-11T23:10:46.390Z,50.20
2018-06-11T23:13:18.716Z,50.93
2018-06-11T23:15:51.554Z,50.98
2018-06-11T23:18:22.525Z,50.60
2018-06-11T23:20:54.838Z,49.87
2018-06-11T23:23:25.818Z,50.05
2018-06-11T23:25:58.123Z,49.73
2018-06-11T23:28:28.710Z,49.83
2018-06-11T23:31:04.220Z,49.05
2018-06-11T23:33:36.290Z,48.61
2018-06-11T23:36:08.405Z,49.92
2018-06-11T23:38:44.336Z,49.35
2018-06-11T23:41:22.378Z,49.76
2018-06-11T23:43:56.094Z,48.50
2018-06-11T23:46:37.666Z,49.26
2018-06-11T23:49:09.966Z,49.36
2018-06-11T23:51:46.184Z,48.50
2018-06-11T23:54:18.797Z,48.35
2018-06-11T23:56:50.179Z,48.05
2018-06-11T23:59:25.307Z,48.20
